sensor_id;sensor_type;location;lat;lon;timestamp;P1;durP1;ratioP1;P2;durP2;ratioP2
4638;SDS011;2332;38.646;-9.154;2023-12-07T00:00:28;20.80;;;13.53;;
4638;SDS011;2332;38.646;-9.154;2023-12-07T00:02:54;22.80;;;13.60;;
4638;SDS011;2332;38.646;-9.154;2023-12-07T00:05:19;18.00;;;13.27;;
4638;SDS011;2332;38.646;-9.154;2023-12-07T00:07:44;22.57;;;14.07;;
4638;SDS011;2332;38.646;-9.154;2023-12-07T00:10:10;19.97;;;14.00;;
4638;SDS011;2332;38.646;-9.154;2023-12-07T00:12:35;32.77;;;19.27;;
4638;SDS011;2332;38.646;-9.154;2023-12-07T00:15:00;25.33;;;18.00;;
4638;SDS011;2332;38.646;-9.154;2023-12-07T00:17:27;29.47;;;18.70;;
4638;SDS011;2332;38.646;-9.154;2023-12-07T00:19:56;35.50;;;21.10;;
4638;SDS011;2332;38.646;-9.154;2023-12-07T00:22:21;37.20;;;20.37;;
4638;SDS011;2332;38.646;-9.154;2023-12-07T00:24:47;29.50;;;17.00;;
4638;SDS011;2332;38.646;-9.154;2023-12-07T00:27:12;30.13;;;17.30;;
4638;SDS011;2332;38.646;-9.154;2023-12-07T00:29:37;31.03;;;18.37;;
4638;SDS011;2332;38.646;-9.154;2023-12-07T00:32:03;66.73;;;41.10;;
4638;SDS011;2332;38.646;-9.154;2023-12-07T00:34:29;32.50;;;21.33;;
4638;SDS011;2332;38.646;-9.154;2023-12-07T00:36:54;23.90;;;17.63;;
4638;SDS011;2332;38.646;-9.154;2023-12-07T00:39:19;23.93;;;16.17;;
4638;SDS011;2332;38.646;-9.154;2023-12-07T00:41:45;26.83;;;16.60;;
4638;SDS011;2332;38.646;-9.154;2023-12-07T00:44:12;21.33;;;14.93;;
4638;SDS011;2332;38.646;-9.154;2023-12-07T00:46:38;21.97;;;15.77;;
4638;SDS011;2332;38.646;-9.154;2023-12-07T00:49:03;22.00;;;14.83;;
4638;SDS011;2332;38.646;-9.154;2023-12-07T00:51:29;26.83;;;15.67;;
4638;SDS011;2332;38.646;-9.154;2023-12-07T00:53:54;24.80;;;15.70;;
4638;SDS011;2332;38.646;-9.154;2023-12-07T00:56:19;28.37;;;14.90;;
4638;SDS011;2332;38.646;-9.154;2023-12-07T00:58:45;26.03;;;16.20;;
4638;SDS011;2332;38.646;-9.154;2023-12-07T01:01:10;24.10;;;15.60;;
4638;SDS011;2332;38.646;-9.154;2023-12-07T01:03:36;23.60;;;15.30;;
4638;SDS011;2332;38.646;-9.154;2023-12-07T01:06:01;23.70;;;14.23;;
4638;SDS011;2332;38.646;-9.154;2023-12-07T01:08:27;23.57;;;15.90;;
4638;SDS011;2332;38.646;-9.154;2023-12-07T01:10:55;23.93;;;15.57;;
4638;SDS011;2332;38.646;-9.154;2023-12-07T01:13:20;28.70;;;14.77;;
4638;SDS011;2332;38.646;-9.154;2023-12-07T01:15:45;23.97;;;14.47;;
4638;SDS011;2332;38.646;-9.154;2023-12-07T01:18:11;22.87;;;15.30;;
4638;SDS011;2332;38.646;-9.154;2023-12-07T01:20:36;21.83;;;12.97;;
4638;SDS011;2332;38.646;-9.154;2023-12-07T01:23:02;19.10;;;12.70;;
4638;SDS011;2332;38.646;-9.154;2023-12-07T01:25:27;17.00;;;12.20;;
4638;SDS011;2332;38.646;-9.154;2023-12-07T01:27:53;21.60;;;12.33;;
4638;SDS011;2332;38.646;-9.154;2023-12-07T01:30:18;20.83;;;12.53;;
4638;SDS011;2332;38.646;-9.154;2023-12-07T01:32:44;20.60;;;11.20;;
4638;SDS011;2332;38.646;-9.154;2023-12-07T01:35:09;17.40;;;11.47;;
4638;SDS011;2332;38.646;-9.154;2023-12-07T01:37:34;18.73;;;12.67;;
4638;SDS011;2332;38.646;-9.154;2023-12-07T01:40:00;14.63;;;11.17;;
4638;SDS011;2332;38.646;-9.154;2023-12-07T01:42:25;14.30;;;11.73;;
4638;SDS011;2332;38.646;-9.154;2023-12-07T01:44:51;16.77;;;12.40;;
4638;SDS011;2332;38.646;-9.154;2023-12-07T01:47:16;15.93;;;12.20;;
4638;SDS011;2332;38.646;-9.154;2023-12-07T01:49:41;17.73;;;11.77;;
4638;SDS011;2332;38.646;-9.154;2023-12-07T01:52:07;16.37;;;11.93;;
4638;SDS011;2332;38.646;-9.154;2023-12-07T01:54:33;16.80;;;10.93;;
4638;SDS011;2332;38.646;-9.154;2023-12-07T01:56:59;18.50;;;11.70;;
4638;SDS011;2332;38.646;-9.154;2023-12-07T01:59:24;21.50;;;11.60;;
4638;SDS011;2332;38.646;-9.154;2023-12-07T02:01:50;13.60;;;10.43;;
4638;SDS011;2332;38.646;-9.154;2023-12-07T02:04:16;14.57;;;10.27;;
4638;SDS011;2332;38.646;-9.154;2023-12-07T02:06:41;15.27;;;10.73;;
4638;SDS011;2332;38.646;-9.154;2023-12-07T02:09:07;19.20;;;11.47;;
4638;SDS011;2332;38.646;-9.154;2023-12-07T02:11:32;16.00;;;10.67;;
4638;SDS011;2332;38.646;-9.154;2023-12-07T02:13:58;15.20;;;10.73;;
4638;SDS011;2332;38.646;-9.154;2023-12-07T02:16:25;17.23;;;10.20;;
4638;SDS011;2332;38.646;-9.154;2023-12-07T02:18:56;15.70;;;10.57;;
4638;SDS011;2332;38.646;-9.154;2023-12-07T02:21:28;13.03;;;9.80;;
4638;SDS011;2332;38.646;-9.154;2023-12-07T02:23:55;14.40;;;9.43;;
4638;SDS011;2332;38.646;-9.154;2023-12-07T02:26:22;17.30;;;10.00;;
4638;SDS011;2332;38.646;-9.154;2023-12-07T02:28:49;16.13;;;9.87;;
4638;SDS011;2332;38.646;-9.154;2023-12-07T02:31:14;14.23;;;10.00;;
4638;SDS011;2332;38.646;-9.154;2023-12-07T02:33:40;17.57;;;10.30;;
4638;SDS011;2332;38.646;-9.154;2023-12-07T02:36:05;13.40;;;9.63;;
4638;SDS011;2332;38.646;-9.154;2023-12-07T02:38:31;14.63;;;10.70;;
4638;SDS011;2332;38.646;-9.154;2023-12-07T02:40:57;17.73;;;12.03;;
4638;SDS011;2332;38.646;-9.154;2023-12-07T02:43:24;20.97;;;13.03;;
4638;SDS011;2332;38.646;-9.154;2023-12-07T02:45:49;15.83;;;11.67;;
4638;SDS011;2332;38.646;-9.154;2023-12-07T02:48:14;41.27;;;26.23;;
4638;SDS011;2332;38.646;-9.154;2023-12-07T02:50:42;28.23;;;18.70;;
4638;SDS011;2332;38.646;-9.154;2023-12-07T02:53:08;22.83;;;15.00;;
4638;SDS011;2332;38.646;-9.154;2023-12-07T02:55:33;15.27;;;12.40;;
4638;SDS011;2332;38.646;-9.154;2023-12-07T02:57:58;17.23;;;11.27;;
4638;SDS011;2332;38.646;-9.154;2023-12-07T03:00:24;19.53;;;12.30;;
4638;SDS011;2332;38.646;-9.154;2023-12-07T03:02:49;17.50;;;11.83;;
4638;SDS011;2332;38.646;-9.154;2023-12-07T03:05:15;22.33;;;12.83;;
4638;SDS011;2332;38.646;-9.154;2023-12-07T03:07:41;17.60;;;12.37;;
4638;SDS011;2332;38.646;-9.154;2023-12-07T03:10:06;18.50;;;11.67;;
4638;SDS011;2332;38.646;-9.154;2023-12-07T03:12:32;15.30;;;11.70;;
4638;SDS011;2332;38.646;-9.154;2023-12-07T03:14:57;19.83;;;11.67;;
4638;SDS011;2332;38.646;-9.154;2023-12-07T03:17:23;22.07;;;11.77;;
4638;SDS011;2332;38.646;-9.154;2023-12-07T03:19:48;18.23;;;11.87;;
4638;SDS011;2332;38.646;-9.154;2023-12-07T03:22:14;16.27;;;10.93;;
4638;SDS011;2332;38.646;-9.154;2023-12-07T03:24:40;23.20;;;11.17;;
4638;SDS011;2332;38.646;-9.154;2023-12-07T03:27:05;16.50;;;11.60;;
4638;SDS011;2332;38.646;-9.154;2023-12-07T03:29:31;16.87;;;11.37;;
4638;SDS011;2332;38.646;-9.154;2023-12-07T03:31:57;17.80;;;10.37;;
4638;SDS011;2332;38.646;-9.154;2023-12-07T03:34:23;20.50;;;10.67;;
4638;SDS011;2332;38.646;-9.154;2023-12-07T03:36:48;16.27;;;10.40;;
4638;SDS011;2332;38.646;-9.154;2023-12-07T03:39:14;15.83;;;10.30;;
4638;SDS011;2332;38.646;-9.154;2023-12-07T03:41:39;18.17;;;9.73;;
4638;SDS011;2332;38.646;-9.154;2023-12-07T03:44:05;13.20;;;9.93;;
4638;SDS011;2332;38.646;-9.154;2023-12-07T03:46:30;16.73;;;9.37;;
4638;SDS011;2332;38.646;-9.154;2023-12-07T03:48:56;10.47;;;8.73;;
4638;SDS011;2332;38.646;-9.154;2023-12-07T03:51:21;12.17;;;8.37;;
4638;SDS011;2332;38.646;-9.154;2023-12-07T03:53:46;11.03;;;7.83;;
4638;SDS011;2332;38.646;-9.154;2023-12-07T03:56:22;22.00;;;7.70;;
4638;SDS011;2332;38.646;-9.154;2023-12-07T03:58:47;11.53;;;7.70;;
4638;SDS011;2332;38.646;-9.154;2023-12-07T04:01:15;12.57;;;8.40;;
4638;SDS011;2332;38.646;-9.154;2023-12-07T04:03:40;11.83;;;8.90;;
4638;SDS011;2332;38.646;-9.154;2023-12-07T04:06:06;14.67;;;8.40;;
4638;SDS011;2332;38.646;-9.154;2023-12-07T04:08:31;15.43;;;8.33;;
4638;SDS011;2332;38.646;-9.154;2023-12-07T04:10:57;10.93;;;7.10;;
4638;SDS011;2332;38.646;-9.154;2023-12-07T04:13:22;15.27;;;7.90;;
4638;SDS011;2332;38.646;-9.154;2023-12-07T04:15:47;12.23;;;7.20;;
4638;SDS011;2332;38.646;-9.154;2023-12-07T04:18:13;11.13;;;7.40;;
4638;SDS011;2332;38.646;-9.154;2023-12-07T04:20:38;12.37;;;7.40;;
4638;SDS011;2332;38.646;-9.154;2023-12-07T04:23:03;9.80;;;6.80;;
4638;SDS011;2332;38.646;-9.154;2023-12-07T04:25:29;8.93;;;6.53;;
4638;SDS011;2332;38.646;-9.154;2023-12-07T04:27:54;13.23;;;7.30;;
4638;SDS011;2332;38.646;-9.154;2023-12-07T04:30:20;12.30;;;7.90;;
4638;SDS011;2332;38.646;-9.154;2023-12-07T04:32:45;13.73;;;7.93;;
4638;SDS011;2332;38.646;-9.154;2023-12-07T04:35:10;10.47;;;8.00;;
4638;SDS011;2332;38.646;-9.154;2023-12-07T04:37:36;10.23;;;8.07;;
4638;SDS011;2332;38.646;-9.154;2023-12-07T04:40:01;14.70;;;8.30;;
4638;SDS011;2332;38.646;-9.154;2023-12-07T04:42:27;12.93;;;8.20;;
4638;SDS011;2332;38.646;-9.154;2023-12-07T04:44:53;12.80;;;7.60;;
4638;SDS011;2332;38.646;-9.154;2023-12-07T04:47:18;13.37;;;7.80;;
4638;SDS011;2332;38.646;-9.154;2023-12-07T04:49:44;11.90;;;7.73;;
4638;SDS011;2332;38.646;-9.154;2023-12-07T04:52:09;8.43;;;7.40;;
4638;SDS011;2332;38.646;-9.154;2023-12-07T04:54:34;6.87;;;6.13;;
4638;SDS011;2332;38.646;-9.154;2023-12-07T04:57:00;9.30;;;7.53;;
4638;SDS011;2332;38.646;-9.154;2023-12-07T04:59:25;14.60;;;9.20;;
4638;SDS011;2332;38.646;-9.154;2023-12-07T05:01:51;16.40;;;10.80;;
4638;SDS011;2332;38.646;-9.154;2023-12-07T05:04:16;18.07;;;11.93;;
4638;SDS011;2332;38.646;-9.154;2023-12-07T05:06:41;23.80;;;12.57;;
4638;SDS011;2332;38.646;-9.154;2023-12-07T05:09:07;20.77;;;13.10;;
4638;SDS011;2332;38.646;-9.154;2023-12-07T05:11:34;14.73;;;12.27;;
4638;SDS011;2332;38.646;-9.154;2023-12-07T05:14:01;24.77;;;12.13;;
4638;SDS011;2332;38.646;-9.154;2023-12-07T05:16:29;16.90;;;11.80;;
4638;SDS011;2332;38.646;-9.154;2023-12-07T05:18:55;17.17;;;11.37;;
4638;SDS011;2332;38.646;-9.154;2023-12-07T05:21:20;14.60;;;10.20;;
4638;SDS011;2332;38.646;-9.154;2023-12-07T05:23:46;15.53;;;10.60;;
4638;SDS011;2332;38.646;-9.154;2023-12-07T05:26:11;17.50;;;10.17;;
4638;SDS011;2332;38.646;-9.154;2023-12-07T05:28:37;12.30;;;9.73;;
4638;SDS011;2332;38.646;-9.154;2023-12-07T05:31:03;23.50;;;11.43;;
4638;SDS011;2332;38.646;-9.154;2023-12-07T05:33:28;21.67;;;11.87;;
4638;SDS011;2332;38.646;-9.154;2023-12-07T05:35:54;17.50;;;10.77;;
4638;SDS011;2332;38.646;-9.154;2023-12-07T05:38:19;12.40;;;11.07;;
4638;SDS011;2332;38.646;-9.154;2023-12-07T05:40:45;17.40;;;11.40;;
4638;SDS011;2332;38.646;-9.154;2023-12-07T05:43:10;15.40;;;10.17;;
4638;SDS011;2332;38.646;-9.154;2023-12-07T05:45:35;15.03;;;10.43;;
4638;SDS011;2332;38.646;-9.154;2023-12-07T05:48:01;22.70;;;11.37;;
4638;SDS011;2332;38.646;-9.154;2023-12-07T05:50:26;16.20;;;11.00;;
4638;SDS011;2332;38.646;-9.154;2023-12-07T05:52:51;19.93;;;11.50;;
4638;SDS011;2332;38.646;-9.154;2023-12-07T05:55:17;15.00;;;10.80;;
4638;SDS011;2332;38.646;-9.154;2023-12-07T05:57:44;15.73;;;10.67;;
4638;SDS011;2332;38.646;-9.154;2023-12-07T06:00:10;17.20;;;10.40;;
4638;SDS011;2332;38.646;-9.154;2023-12-07T06:02:35;18.57;;;11.50;;
4638;SDS011;2332;38.646;-9.154;2023-12-07T06:05:04;14.57;;;10.63;;
4638;SDS011;2332;38.646;-9.154;2023-12-07T06:07:30;22.37;;;11.60;;
4638;SDS011;2332;38.646;-9.154;2023-12-07T06:09:55;15.67;;;11.63;;
4638;SDS011;2332;38.646;-9.154;2023-12-07T06:12:21;16.87;;;11.57;;
4638;SDS011;2332;38.646;-9.154;2023-12-07T06:14:47;16.10;;;11.60;;
4638;SDS011;2332;38.646;-9.154;2023-12-07T06:17:12;18.83;;;11.77;;
4638;SDS011;2332;38.646;-9.154;2023-12-07T06:19:38;15.20;;;10.60;;
4638;SDS011;2332;38.646;-9.154;2023-12-07T06:22:03;16.43;;;11.17;;
4638;SDS011;2332;38.646;-9.154;2023-12-07T06:24:28;19.97;;;11.93;;
4638;SDS011;2332;38.646;-9.154;2023-12-07T06:26:54;19.60;;;12.10;;
4638;SDS011;2332;38.646;-9.154;2023-12-07T06:29:20;21.17;;;11.57;;
4638;SDS011;2332;38.646;-9.154;2023-12-07T06:31:45;18.50;;;11.83;;
4638;SDS011;2332;38.646;-9.154;2023-12-07T06:34:11;20.27;;;12.13;;
4638;SDS011;2332;38.646;-9.154;2023-12-07T06:36:36;24.60;;;12.10;;
4638;SDS011;2332;38.646;-9.154;2023-12-07T06:39:02;16.03;;;11.37;;
4638;SDS011;2332;38.646;-9.154;2023-12-07T06:41:28;16.57;;;10.57;;
4638;SDS011;2332;38.646;-9.154;2023-12-07T06:43:53;15.53;;;10.60;;
4638;SDS011;2332;38.646;-9.154;2023-12-07T06:46:19;23.20;;;11.33;;
4638;SDS011;2332;38.646;-9.154;2023-12-07T06:48:44;19.23;;;11.40;;
4638;SDS011;2332;38.646;-9.154;2023-12-07T06:51:10;18.77;;;12.50;;
4638;SDS011;2332;38.646;-9.154;2023-12-07T06:53:35;16.00;;;11.80;;
4638;SDS011;2332;38.646;-9.154;2023-12-07T06:56:00;22.63;;;11.77;;
4638;SDS011;2332;38.646;-9.154;2023-12-07T06:58:26;15.97;;;11.07;;
4638;SDS011;2332;38.646;-9.154;2023-12-07T07:00:51;19.37;;;12.10;;
4638;SDS011;2332;38.646;-9.154;2023-12-07T07:03:17;19.03;;;11.30;;
4638;SDS011;2332;38.646;-9.154;2023-12-07T07:05:42;18.77;;;11.83;;
4638;SDS011;2332;38.646;-9.154;2023-12-07T07:08:08;19.57;;;11.83;;
4638;SDS011;2332;38.646;-9.154;2023-12-07T07:10:33;18.20;;;11.77;;
4638;SDS011;2332;38.646;-9.154;2023-12-07T07:12:59;17.63;;;11.40;;
4638;SDS011;2332;38.646;-9.154;2023-12-07T07:15:25;18.23;;;11.90;;
4638;SDS011;2332;38.646;-9.154;2023-12-07T07:17:50;23.27;;;12.37;;
4638;SDS011;2332;38.646;-9.154;2023-12-07T07:20:16;21.13;;;11.67;;
4638;SDS011;2332;38.646;-9.154;2023-12-07T07:22:42;17.10;;;11.53;;
4638;SDS011;2332;38.646;-9.154;2023-12-07T07:25:08;19.33;;;11.33;;
4638;SDS011;2332;38.646;-9.154;2023-12-07T07:27:33;16.90;;;10.87;;
4638;SDS011;2332;38.646;-9.154;2023-12-07T07:29:59;18.73;;;12.43;;
4638;SDS011;2332;38.646;-9.154;2023-12-07T07:32:24;13.40;;;10.93;;
4638;SDS011;2332;38.646;-9.154;2023-12-07T07:34:49;22.00;;;12.77;;
4638;SDS011;2332;38.646;-9.154;2023-12-07T07:37:15;18.00;;;11.67;;
4638;SDS011;2332;38.646;-9.154;2023-12-07T07:39:40;19.60;;;12.20;;
4638;SDS011;2332;38.646;-9.154;2023-12-07T07:42:06;15.53;;;11.30;;
4638;SDS011;2332;38.646;-9.154;2023-12-07T07:44:31;15.10;;;11.40;;
4638;SDS011;2332;38.646;-9.154;2023-12-07T07:46:57;20.77;;;11.87;;
4638;SDS011;2332;38.646;-9.154;2023-12-07T07:49:22;25.83;;;11.20;;
4638;SDS011;2332;38.646;-9.154;2023-12-07T07:51:50;14.80;;;9.90;;
4638;SDS011;2332;38.646;-9.154;2023-12-07T07:54:16;19.30;;;9.50;;
4638;SDS011;2332;38.646;-9.154;2023-12-07T07:56:42;14.37;;;9.53;;
4638;SDS011;2332;38.646;-9.154;2023-12-07T07:59:08;14.70;;;9.47;;
4638;SDS011;2332;38.646;-9.154;2023-12-07T08:01:33;15.93;;;9.73;;
4638;SDS011;2332;38.646;-9.154;2023-12-07T08:03:59;15.70;;;9.53;;
4638;SDS011;2332;38.646;-9.154;2023-12-07T08:06:24;18.67;;;8.57;;
4638;SDS011;2332;38.646;-9.154;2023-12-07T08:08:49;15.00;;;8.33;;
4638;SDS011;2332;38.646;-9.154;2023-12-07T08:11:15;13.57;;;7.13;;
4638;SDS011;2332;38.646;-9.154;2023-12-07T08:13:40;20.80;;;7.43;;
4638;SDS011;2332;38.646;-9.154;2023-12-07T08:16:09;9.50;;;5.23;;
4638;SDS011;2332;38.646;-9.154;2023-12-07T08:18:34;14.93;;;6.03;;
4638;SDS011;2332;38.646;-9.154;2023-12-07T08:20:59;7.27;;;3.50;;
4638;SDS011;2332;38.646;-9.154;2023-12-07T08:23:25;14.13;;;4.33;;
4638;SDS011;2332;38.646;-9.154;2023-12-07T08:25:50;18.57;;;3.43;;
4638;SDS011;2332;38.646;-9.154;2023-12-07T08:28:15;8.17;;;2.00;;
4638;SDS011;2332;38.646;-9.154;2023-12-07T08:30:41;10.43;;;2.37;;
4638;SDS011;2332;38.646;-9.154;2023-12-07T08:33:06;9.50;;;2.53;;
4638;SDS011;2332;38.646;-9.154;2023-12-07T08:35:31;11.50;;;2.50;;
4638;SDS011;2332;38.646;-9.154;2023-12-07T08:37:57;13.63;;;2.57;;
4638;SDS011;2332;38.646;-9.154;2023-12-07T08:40:22;15.97;;;2.60;;
4638;SDS011;2332;38.646;-9.154;2023-12-07T08:42:47;17.43;;;2.20;;
4638;SDS011;2332;38.646;-9.154;2023-12-07T08:45:13;11.00;;;2.40;;
4638;SDS011;2332;38.646;-9.154;2023-12-07T08:47:39;20.27;;;2.40;;
4638;SDS011;2332;38.646;-9.154;2023-12-07T08:50:04;8.17;;;2.30;;
4638;SDS011;2332;38.646;-9.154;2023-12-07T08:52:30;15.70;;;3.23;;
4638;SDS011;2332;38.646;-9.154;2023-12-07T08:54:55;18.60;;;2.90;;
4638;SDS011;2332;38.646;-9.154;2023-12-07T08:57:21;19.80;;;3.50;;
4638;SDS011;2332;38.646;-9.154;2023-12-07T08:59:46;13.40;;;2.60;;
4638;SDS011;2332;38.646;-9.154;2023-12-07T09:02:11;15.27;;;4.10;;
4638;SDS011;2332;38.646;-9.154;2023-12-07T09:04:37;11.20;;;2.17;;
4638;SDS011;2332;38.646;-9.154;2023-12-07T09:07:03;12.77;;;2.43;;
4638;SDS011;2332;38.646;-9.154;2023-12-07T09:09:29;18.00;;;2.80;;
4638;SDS011;2332;38.646;-9.154;2023-12-07T09:11:54;19.30;;;2.77;;
4638;SDS011;2332;38.646;-9.154;2023-12-07T09:14:19;24.87;;;3.47;;
4638;SDS011;2332;38.646;-9.154;2023-12-07T09:16:45;24.60;;;3.77;;
4638;SDS011;2332;38.646;-9.154;2023-12-07T09:19:11;11.57;;;2.93;;
4638;SDS011;2332;38.646;-9.154;2023-12-07T09:21:37;15.23;;;2.83;;
4638;SDS011;2332;38.646;-9.154;2023-12-07T09:24:02;13.60;;;3.13;;
4638;SDS011;2332;38.646;-9.154;2023-12-07T09:26:28;19.20;;;3.27;;
4638;SDS011;2332;38.646;-9.154;2023-12-07T09:28:53;16.93;;;3.30;;
4638;SDS011;2332;38.646;-9.154;2023-12-07T09:31:19;11.30;;;3.40;;
4638;SDS011;2332;38.646;-9.154;2023-12-07T09:33:44;13.83;;;3.03;;
4638;SDS011;2332;38.646;-9.154;2023-12-07T09:36:10;16.67;;;2.80;;
4638;SDS011;2332;38.646;-9.154;2023-12-07T09:38:36;12.80;;;2.57;;
4638;SDS011;2332;38.646;-9.154;2023-12-07T09:41:02;17.40;;;3.13;;
4638;SDS011;2332;38.646;-9.154;2023-12-07T09:43:28;12.83;;;3.50;;
4638;SDS011;2332;38.646;-9.154;2023-12-07T09:45:53;16.87;;;3.23;;
4638;SDS011;2332;38.646;-9.154;2023-12-07T09:48:19;9.40;;;2.50;;
4638;SDS011;2332;38.646;-9.154;2023-12-07T09:50:45;13.80;;;2.83;;
4638;SDS011;2332;38.646;-9.154;2023-12-07T09:53:10;18.90;;;4.60;;
4638;SDS011;2332;38.646;-9.154;2023-12-07T09:55:36;17.53;;;2.50;;
4638;SDS011;2332;38.646;-9.154;2023-12-07T09:58:03;18.13;;;2.73;;
4638;SDS011;2332;38.646;-9.154;2023-12-07T10:00:28;17.70;;;3.27;;
4638;SDS011;2332;38.646;-9.154;2023-12-07T10:02:53;16.97;;;3.10;;
4638;SDS011;2332;38.646;-9.154;2023-12-07T10:05:19;18.97;;;3.03;;
4638;SDS011;2332;38.646;-9.154;2023-12-07T10:07:45;11.27;;;2.50;;
4638;SDS011;2332;38.646;-9.154;2023-12-07T10:10:13;21.87;;;3.10;;
4638;SDS011;2332;38.646;-9.154;2023-12-07T10:12:44;21.50;;;2.80;;
4638;SDS011;2332;38.646;-9.154;2023-12-07T10:15:13;13.57;;;3.10;;
4638;SDS011;2332;38.646;-9.154;2023-12-07T10:17:51;18.40;;;2.60;;
4638;SDS011;2332;38.646;-9.154;2023-12-07T10:20:20;16.10;;;2.87;;
4638;SDS011;2332;38.646;-9.154;2023-12-07T10:22:49;25.37;;;3.67;;
4638;SDS011;2332;38.646;-9.154;2023-12-07T10:25:25;19.37;;;3.33;;
4638;SDS011;2332;38.646;-9.154;2023-12-07T10:27:50;16.87;;;2.67;;
4638;SDS011;2332;38.646;-9.154;2023-12-07T10:30:16;13.93;;;2.83;;
4638;SDS011;2332;38.646;-9.154;2023-12-07T10:32:41;15.47;;;2.60;;
4638;SDS011;2332;38.646;-9.154;2023-12-07T10:35:07;16.30;;;2.43;;
4638;SDS011;2332;38.646;-9.154;2023-12-07T10:37:33;19.90;;;2.80;;
4638;SDS011;2332;38.646;-9.154;2023-12-07T10:39:58;20.63;;;2.60;;
4638;SDS011;2332;38.646;-9.154;2023-12-07T10:42:24;18.93;;;2.70;;
4638;SDS011;2332;38.646;-9.154;2023-12-07T10:44:50;17.30;;;2.40;;
4638;SDS011;2332;38.646;-9.154;2023-12-07T10:47:15;21.23;;;3.60;;
4638;SDS011;2332;38.646;-9.154;2023-12-07T10:49:43;22.20;;;3.20;;
4638;SDS011;2332;38.646;-9.154;2023-12-07T10:52:10;21.00;;;3.60;;
4638;SDS011;2332;38.646;-9.154;2023-12-07T10:55:26;23.80;;;3.80;;
4638;SDS011;2332;38.646;-9.154;2023-12-07T10:57:23;17.83;;;3.40;;
4638;SDS011;2332;38.646;-9.154;2023-12-07T10:59:48;12.40;;;2.80;;
4638;SDS011;2332;38.646;-9.154;2023-12-07T11:02:15;19.90;;;3.47;;
4638;SDS011;2332;38.646;-9.154;2023-12-07T11:04:41;21.23;;;3.60;;
4638;SDS011;2332;38.646;-9.154;2023-12-07T11:07:09;22.20;;;3.30;;
4638;SDS011;2332;38.646;-9.154;2023-12-07T11:09:37;19.20;;;3.77;;
4638;SDS011;2332;38.646;-9.154;2023-12-07T11:14:29;18.93;;;3.57;;
4638;SDS011;2332;38.646;-9.154;2023-12-07T11:16:55;20.60;;;4.00;;
4638;SDS011;2332;38.646;-9.154;2023-12-07T11:22:01;18.83;;;3.17;;
4638;SDS011;2332;38.646;-9.154;2023-12-07T11:24:26;21.97;;;3.40;;
4638;SDS011;2332;38.646;-9.154;2023-12-07T11:26:52;15.60;;;3.20;;
4638;SDS011;2332;38.646;-9.154;2023-12-07T11:29:21;18.80;;;2.80;;
4638;SDS011;2332;38.646;-9.154;2023-12-07T11:31:48;12.10;;;2.73;;
4638;SDS011;2332;38.646;-9.154;2023-12-07T11:34:13;18.03;;;3.20;;
4638;SDS011;2332;38.646;-9.154;2023-12-07T11:36:39;28.63;;;3.57;;
4638;SDS011;2332;38.646;-9.154;2023-12-07T11:41:34;22.93;;;3.87;;
4638;SDS011;2332;38.646;-9.154;2023-12-07T11:43:59;16.87;;;2.63;;
4638;SDS011;2332;38.646;-9.154;2023-12-07T11:46:24;16.73;;;3.60;;
4638;SDS011;2332;38.646;-9.154;2023-12-07T11:48:50;23.03;;;3.93;;
4638;SDS011;2332;38.646;-9.154;2023-12-07T11:51:16;24.63;;;3.97;;
4638;SDS011;2332;38.646;-9.154;2023-12-07T11:53:41;23.50;;;3.73;;
4638;SDS011;2332;38.646;-9.154;2023-12-07T11:56:08;30.97;;;3.50;;
4638;SDS011;2332;38.646;-9.154;2023-12-07T11:58:34;26.87;;;4.00;;
4638;SDS011;2332;38.646;-9.154;2023-12-07T12:00:59;22.83;;;4.37;;
4638;SDS011;2332;38.646;-9.154;2023-12-07T12:03:26;35.07;;;4.77;;
4638;SDS011;2332;38.646;-9.154;2023-12-07T12:05:51;24.50;;;3.70;;
4638;SDS011;2332;38.646;-9.154;2023-12-07T12:08:17;40.87;;;5.10;;
4638;SDS011;2332;38.646;-9.154;2023-12-07T12:10:43;26.70;;;4.90;;
4638;SDS011;2332;38.646;-9.154;2023-12-07T12:13:08;22.97;;;4.17;;
4638;SDS011;2332;38.646;-9.154;2023-12-07T12:15:34;20.90;;;3.90;;
4638;SDS011;2332;38.646;-9.154;2023-12-07T12:17:59;21.60;;;4.07;;
4638;SDS011;2332;38.646;-9.154;2023-12-07T12:20:25;19.90;;;3.50;;
4638;SDS011;2332;38.646;-9.154;2023-12-07T12:22:51;16.47;;;3.87;;
4638;SDS011;2332;38.646;-9.154;2023-12-07T12:25:37;31.90;;;4.30;;
4638;SDS011;2332;38.646;-9.154;2023-12-07T12:28:04;32.50;;;4.60;;
4638;SDS011;2332;38.646;-9.154;2023-12-07T12:30:30;25.10;;;4.00;;
4638;SDS011;2332;38.646;-9.154;2023-12-07T12:32:56;29.33;;;3.90;;
4638;SDS011;2332;38.646;-9.154;2023-12-07T12:35:21;21.47;;;3.47;;
4638;SDS011;2332;38.646;-9.154;2023-12-07T12:37:48;30.87;;;3.87;;
4638;SDS011;2332;38.646;-9.154;2023-12-07T12:40:15;17.13;;;4.30;;
4638;SDS011;2332;38.646;-9.154;2023-12-07T12:42:47;34.73;;;4.37;;
4638;SDS011;2332;38.646;-9.154;2023-12-07T12:45:13;22.97;;;4.63;;
4638;SDS011;2332;38.646;-9.154;2023-12-07T12:47:40;21.73;;;4.07;;
4638;SDS011;2332;38.646;-9.154;2023-12-07T12:50:06;22.20;;;4.33;;
4638;SDS011;2332;38.646;-9.154;2023-12-07T12:52:32;26.50;;;3.77;;
4638;SDS011;2332;38.646;-9.154;2023-12-07T12:54:58;24.40;;;4.13;;
4638;SDS011;2332;38.646;-9.154;2023-12-07T12:57:23;25.43;;;4.40;;
4638;SDS011;2332;38.646;-9.154;2023-12-07T12:59:49;33.27;;;4.70;;
4638;SDS011;2332;38.646;-9.154;2023-12-07T13:02:15;26.23;;;4.40;;
4638;SDS011;2332;38.646;-9.154;2023-12-07T13:04:40;29.70;;;5.50;;
4638;SDS011;2332;38.646;-9.154;2023-12-07T13:07:06;37.37;;;4.60;;
4638;SDS011;2332;38.646;-9.154;2023-12-07T13:09:31;36.70;;;4.17;;
4638;SDS011;2332;38.646;-9.154;2023-12-07T13:11:57;24.53;;;4.20;;
4638;SDS011;2332;38.646;-9.154;2023-12-07T13:14:23;16.97;;;3.20;;
4638;SDS011;2332;38.646;-9.154;2023-12-07T13:16:48;28.43;;;4.60;;
4638;SDS011;2332;38.646;-9.154;2023-12-07T13:19:13;19.20;;;4.23;;
4638;SDS011;2332;38.646;-9.154;2023-12-07T13:21:39;19.73;;;4.20;;
4638;SDS011;2332;38.646;-9.154;2023-12-07T13:24:04;25.37;;;3.47;;
4638;SDS011;2332;38.646;-9.154;2023-12-07T13:26:30;28.77;;;4.40;;
4638;SDS011;2332;38.646;-9.154;2023-12-07T13:28:56;27.43;;;4.57;;
4638;SDS011;2332;38.646;-9.154;2023-12-07T13:31:21;22.33;;;3.87;;
4638;SDS011;2332;38.646;-9.154;2023-12-07T13:33:47;24.57;;;3.73;;
4638;SDS011;2332;38.646;-9.154;2023-12-07T13:36:12;24.43;;;3.47;;
4638;SDS011;2332;38.646;-9.154;2023-12-07T13:38:39;25.67;;;4.83;;
4638;SDS011;2332;38.646;-9.154;2023-12-07T13:41:04;24.17;;;4.40;;
4638;SDS011;2332;38.646;-9.154;2023-12-07T13:43:30;27.63;;;4.57;;
4638;SDS011;2332;38.646;-9.154;2023-12-07T13:45:55;24.13;;;5.17;;
4638;SDS011;2332;38.646;-9.154;2023-12-07T13:48:21;25.87;;;3.60;;
4638;SDS011;2332;38.646;-9.154;2023-12-07T13:50:46;28.53;;;4.23;;
4638;SDS011;2332;38.646;-9.154;2023-12-07T13:53:12;36.73;;;5.33;;
4638;SDS011;2332;38.646;-9.154;2023-12-07T13:55:37;21.10;;;3.93;;
4638;SDS011;2332;38.646;-9.154;2023-12-07T13:58:04;26.20;;;4.87;;
4638;SDS011;2332;38.646;-9.154;2023-12-07T14:00:29;26.50;;;5.10;;
4638;SDS011;2332;38.646;-9.154;2023-12-07T14:02:56;19.47;;;3.10;;
4638;SDS011;2332;38.646;-9.154;2023-12-07T14:05:22;14.10;;;2.23;;
4638;SDS011;2332;38.646;-9.154;2023-12-07T14:07:47;12.37;;;2.43;;
4638;SDS011;2332;38.646;-9.154;2023-12-07T14:10:13;10.30;;;2.23;;
4638;SDS011;2332;38.646;-9.154;2023-12-07T14:12:38;5.17;;;1.23;;
4638;SDS011;2332;38.646;-9.154;2023-12-07T14:15:04;8.37;;;1.70;;
4638;SDS011;2332;38.646;-9.154;2023-12-07T14:17:29;4.53;;;1.37;;
4638;SDS011;2332;38.646;-9.154;2023-12-07T14:20:02;4.67;;;0.90;;
4638;SDS011;2332;38.646;-9.154;2023-12-07T14:22:29;1.73;;;1.23;;
4638;SDS011;2332;38.646;-9.154;2023-12-07T14:24:54;6.87;;;2.70;;
4638;SDS011;2332;38.646;-9.154;2023-12-07T14:27:20;6.53;;;1.43;;
4638;SDS011;2332;38.646;-9.154;2023-12-07T14:29:46;2.10;;;1.00;;
4638;SDS011;2332;38.646;-9.154;2023-12-07T14:32:11;3.43;;;1.20;;
4638;SDS011;2332;38.646;-9.154;2023-12-07T14:34:37;2.23;;;1.30;;
4638;SDS011;2332;38.646;-9.154;2023-12-07T14:37:05;3.17;;;1.67;;
4638;SDS011;2332;38.646;-9.154;2023-12-07T14:39:31;6.80;;;2.07;;
4638;SDS011;2332;38.646;-9.154;2023-12-07T14:42:00;7.03;;;2.00;;